San Cosme, Argentina
Current Conditions -  °F | °C
As of 4:00 AM on Wednesday 26 Nov 2014 (Local Time) from SARC Reporting Station
Clear Clear  
Wind Chill: 21°   Ceiling: Unl
Heat Index: 21°   Visibility: 6mi
Dew Point: 21°   Wind: 6mph
Humidity: 100%   Direction: 200°SSW
Pressure: 29.77"   Gusts: NA
Location:  27.37°S, 58.52°W
Report Text: SARC 260700Z 20005KT CAVOK 21/21 Q1008
Loading
Personal Weather Stations






























Interactive Weather Map New forecast layout! Learn more

10-Day Weather Forecast

Advertisements
Track Severe Weather on mobile